createdAt,value
2019-02-28T00:01:01.532Z,36.00
2019-02-28T00:03:30.545Z,37.00
2019-02-28T00:05:59.673Z,40.13
2019-02-28T00:08:30.012Z,33.67
2019-02-28T00:10:59.113Z,34.23
2019-02-28T00:13:28.166Z,39.97
2019-02-28T00:15:57.146Z,39.57
2019-02-28T00:18:26.182Z,37.03
2019-02-28T00:20:55.283Z,38.97
2019-02-28T00:23:24.339Z,34.50
2019-02-28T00:25:53.281Z,38.17
2019-02-28T00:28:23.071Z,39.53
2019-02-28T00:30:53.044Z,37.83
2019-02-28T00:33:22.156Z,42.93
2019-02-28T00:35:51.211Z,36.23
2019-02-28T00:38:20.241Z,41.30
2019-02-28T00:40:49.338Z,40.53
2019-02-28T00:43:18.383Z,35.23
2019-02-28T00:45:47.453Z,38.00
2019-02-28T00:48:18.227Z,38.57
2019-02-28T00:50:47.206Z,41.67
2019-02-28T00:53:16.223Z,38.87
2019-02-28T00:55:45.938Z,40.07
2019-02-28T00:58:15.945Z,41.10
2019-02-28T01:00:44.962Z,41.37
2019-02-28T01:03:13.962Z,38.80
2019-02-28T01:05:42.982Z,41.33
2019-02-28T01:08:12.105Z,38.43
2019-02-28T01:10:41.141Z,39.73
2019-02-28T01:13:10.219Z,41.33
2019-02-28T01:15:44.490Z,43.33
2019-02-28T01:18:10.044Z,43.50
2019-02-28T01:20:39.093Z,39.50
2019-02-28T01:23:08.076Z,41.43
2019-02-28T01:25:40.021Z,45.03
2019-02-28T01:28:07.866Z,42.80
2019-02-28T01:30:37.051Z,41.20
2019-02-28T01:33:07.692Z,44.23
2019-02-28T01:35:37.508Z,41.93
2019-02-28T01:38:07.468Z,40.33
2019-02-28T01:40:37.724Z,40.47
2019-02-28T01:43:07.430Z,43.47
2019-02-28T01:45:36.413Z,36.13
2019-02-28T01:48:05.480Z,43.57
2019-02-28T01:50:34.546Z,41.87
2019-02-28T01:53:03.618Z,44.33
2019-02-28T01:55:32.692Z,40.43
2019-02-28T01:58:01.709Z,41.13
2019-02-28T02:00:30.724Z,45.40
2019-02-28T02:02:59.688Z,44.57
2019-02-28T02:05:28.782Z,43.20
2019-02-28T02:07:57.799Z,39.20
2019-02-28T02:10:26.763Z,44.10
2019-02-28T02:12:55.816Z,38.53
2019-02-28T02:15:24.822Z,43.77
2019-02-28T02:17:53.824Z,44.13
2019-02-28T02:20:23.482Z,43.87
2019-02-28T02:22:53.612Z,42.03
2019-02-28T02:25:22.650Z,44.50
2019-02-28T02:27:53.336Z,42.27
2019-02-28T02:30:22.878Z,37.40
2019-02-28T02:32:51.925Z,35.87
2019-02-28T02:35:20.955Z,38.13
2019-02-28T02:37:49.995Z,36.37
2019-02-28T02:40:23.118Z,34.07
2019-02-28T02:42:50.170Z,32.50
2019-02-28T02:45:19.375Z,36.77
2019-02-28T02:47:48.405Z,31.63
2019-02-28T02:50:17.425Z,30.27
2019-02-28T02:52:46.443Z,29.87
2019-02-28T02:55:15.468Z,33.27
2019-02-28T02:57:50.510Z,32.27
2019-02-28T03:00:16.410Z,32.17
2019-02-28T03:02:45.470Z,30.77
2019-02-28T03:05:14.578Z,33.13
2019-02-28T03:07:43.618Z,33.53
2019-02-28T03:10:17.269Z,33.90
2019-02-28T03:12:44.410Z,37.17
2019-02-28T03:15:14.477Z,40.13
2019-02-28T03:17:47.296Z,38.47
2019-02-28T03:20:14.347Z,47.50
2019-02-28T03:22:43.416Z,42.67
2019-02-28T03:25:12.955Z,41.67
2019-02-28T03:27:41.992Z,42.40
2019-02-28T03:30:26.506Z,47.83
2019-02-28T03:32:43.898Z,44.67
2019-02-28T03:35:12.950Z,44.13
2019-02-28T03:37:42.015Z,44.23
2019-02-28T03:40:11.212Z,42.17
2019-02-28T03:42:40.362Z,47.53
2019-02-28T03:45:09.421Z,48.50
2019-02-28T03:47:38.508Z,50.97
2019-02-28T03:50:08.047Z,43.07
2019-02-28T03:52:42.247Z,50.37
2019-02-28T03:55:07.949Z,43.97
2019-02-28T03:57:36.985Z,48.63
2019-02-28T04:00:12.113Z,51.90
2019-02-28T04:03:00.348Z,46.67
2019-02-28T04:05:29.335Z,46.50
2019-02-28T04:08:01.407Z,45.60
2019-02-28T04:10:30.497Z,47.00
2019-02-28T04:13:00.832Z,49.37
2019-02-28T04:15:29.893Z,47.53
2019-02-28T04:17:58.977Z,42.90
2019-02-28T04:20:28.014Z,41.23
2019-02-28T04:22:59.968Z,40.17
2019-02-28T04:25:27.774Z,43.83
2019-02-28T04:27:56.826Z,41.17
2019-02-28T04:30:25.948Z,43.53
2019-02-28T04:33:01.078Z,41.87
2019-02-28T04:35:25.693Z,46.57
2019-02-28T04:37:54.757Z,45.90
2019-02-28T04:40:24.074Z,45.63
2019-02-28T04:42:54.550Z,48.27
2019-02-28T04:45:26.221Z,44.17
2019-02-28T04:47:54.293Z,45.27
2019-02-28T04:50:23.375Z,46.00
2019-02-28T04:52:52.374Z,47.30
2019-02-28T04:55:21.431Z,50.50
2019-02-28T04:57:51.632Z,49.10
2019-02-28T05:00:21.403Z,51.67
2019-02-28T05:02:53.843Z,47.37
2019-02-28T05:05:21.195Z,44.53
2019-02-28T05:07:50.262Z,44.40
2019-02-28T05:10:22.362Z,42.53
2019-02-28T05:12:50.040Z,47.83
2019-02-28T05:15:19.090Z,41.90
2019-02-28T05:17:48.098Z,33.90
2019-02-28T05:20:17.133Z,34.63
2019-02-28T05:22:46.193Z,36.43
2019-02-28T05:25:18.688Z,35.83
2019-02-28T05:27:45.941Z,29.37
2019-02-28T05:30:17.952Z,30.40
2019-02-28T05:32:45.735Z,33.83
2019-02-28T05:35:15.092Z,33.27
2019-02-28T05:37:48.088Z,29.90
2019-02-28T05:40:20.856Z,34.73
2019-02-28T05:42:49.979Z,31.80
2019-02-28T05:45:19.031Z,30.70
2019-02-28T05:47:48.126Z,28.17
2019-02-28T05:50:17.459Z,35.23
2019-02-28T05:52:53.374Z,33.10
2019-02-28T05:55:25.556Z,33.03
2019-02-28T05:57:53.142Z,28.67
2019-02-28T06:00:23.073Z,30.17
2019-02-28T06:02:54.460Z,28.03
2019-02-28T06:05:24.236Z,25.40
2019-02-28T06:07:54.450Z,29.43
2019-02-28T06:10:24.599Z,28.97
2019-02-28T06:12:53.905Z,29.23
2019-02-28T06:15:22.880Z,27.67
2019-02-28T06:17:54.631Z,29.83
2019-02-28T06:20:22.577Z,28.00
2019-02-28T06:22:51.550Z,27.17
2019-02-28T06:25:24.105Z,29.53
2019-02-28T06:27:51.511Z,26.20
2019-02-28T06:30:20.567Z,28.20
2019-02-28T06:32:49.640Z,27.87
2019-02-28T06:35:20.483Z,29.00
2019-02-28T06:37:49.445Z,29.50
2019-02-28T06:40:18.477Z,28.10
2019-02-28T06:42:47.692Z,29.53
2019-02-28T06:45:16.782Z,28.53
2019-02-28T06:47:49.614Z,31.27
2019-02-28T06:50:16.562Z,32.23
2019-02-28T06:52:45.621Z,30.63
2019-02-28T06:55:18.798Z,32.50
2019-02-28T06:57:47.805Z,31.37
2019-02-28T07:00:16.925Z,30.67
2019-02-28T07:02:45.948Z,33.47
2019-02-28T07:05:14.991Z,32.17
2019-02-28T07:07:47.665Z,34.37
2019-02-28T07:10:14.793Z,33.30
2019-02-28T07:12:43.864Z,31.83
2019-02-28T07:15:13.198Z,33.93
2019-02-28T07:17:42.707Z,33.37
2019-02-28T07:20:13.766Z,36.03
2019-02-28T07:22:42.833Z,38.97
2019-02-28T07:25:12.856Z,35.27
2019-02-28T07:27:42.770Z,37.50
2019-02-28T07:30:17.319Z,36.13
2019-02-28T07:32:44.300Z,35.70
2019-02-28T07:35:13.304Z,37.63
2019-02-28T07:37:42.340Z,39.60
2019-02-28T07:40:15.506Z,36.93
2019-02-28T07:42:42.647Z,36.60
2019-02-28T07:45:12.205Z,38.67
2019-02-28T07:47:41.360Z,35.57
2019-02-28T07:50:11.981Z,35.57
2019-02-28T07:52:41.140Z,36.40
2019-02-28T07:55:10.869Z,38.13
2019-02-28T07:57:39.886Z,36.23
2019-02-28T08:00:16.815Z,36.23
2019-02-28T08:02:43.045Z,35.00
2019-02-28T08:05:12.374Z,35.83
2019-02-28T08:07:42.785Z,34.83
2019-02-28T08:10:16.025Z,37.90
2019-02-28T08:12:44.021Z,37.63
2019-02-28T08:15:22.404Z,40.97
2019-02-28T08:17:50.756Z,36.43
2019-02-28T08:20:20.104Z,38.43
2019-02-28T08:22:49.141Z,38.90
2019-02-28T08:25:18.144Z,42.23
2019-02-28T08:27:47.131Z,39.03
2019-02-28T08:30:19.568Z,41.17
2019-02-28T08:32:48.427Z,40.13
2019-02-28T08:35:17.500Z,47.53
2019-02-28T08:37:46.618Z,39.90
2019-02-28T08:40:17.198Z,42.17
2019-02-28T08:42:46.276Z,47.83
2019-02-28T08:45:15.411Z,44.67
2019-02-28T08:48:03.673Z,47.47
2019-02-28T08:50:32.728Z,51.40
2019-02-28T08:53:01.761Z,45.20
2019-02-28T08:55:30.780Z,48.13
2019-02-28T08:58:05.295Z,49.83
2019-02-28T09:00:32.871Z,53.60
2019-02-28T09:03:01.215Z,52.70
2019-02-28T09:05:30.465Z,52.50
2019-02-28T09:07:59.503Z,55.23
2019-02-28T09:10:28.495Z,60.53
2019-02-28T09:12:57.549Z,64.87
2019-02-28T09:15:45.766Z,61.70
2019-02-28T09:18:14.813Z,62.20
2019-02-28T09:20:45.097Z,59.73
2019-02-28T09:23:14.299Z,60.90
2019-02-28T09:25:43.364Z,63.20
2019-02-28T09:28:13.020Z,58.63
2019-02-28T09:30:42.764Z,63.53
2019-02-28T09:33:11.790Z,64.77
2019-02-28T09:35:45.210Z,65.53
2019-02-28T09:38:13.536Z,62.03
2019-02-28T09:40:42.314Z,63.60
2019-02-28T09:43:11.381Z,69.70
2019-02-28T09:45:41.202Z,68.00
2019-02-28T09:48:10.329Z,68.97
2019-02-28T09:50:39.335Z,66.23
2019-02-28T09:53:08.357Z,64.30
2019-02-28T09:55:37.372Z,68.13
2019-02-28T09:58:06.398Z,66.30
2019-02-28T10:00:35.355Z,78.87
2019-02-28T10:03:04.393Z,67.97
2019-02-28T10:05:33.529Z,70.90
2019-02-28T10:08:03.130Z,68.53
2019-02-28T10:10:32.158Z,65.00
2019-02-28T10:13:01.147Z,75.77
2019-02-28T10:15:30.158Z,69.60
2019-02-28T10:18:00.626Z,74.20
2019-02-28T10:20:29.862Z,77.53
2019-02-28T10:22:58.905Z,73.00
2019-02-28T10:25:27.888Z,72.80
2019-02-28T10:28:01.717Z,80.17
2019-02-28T10:30:31.850Z,77.33
2019-02-28T10:32:58.365Z,76.27
2019-02-28T10:35:27.430Z,71.40
2019-02-28T10:37:58.422Z,77.27
2019-02-28T10:40:27.370Z,75.83
2019-02-28T10:42:56.478Z,75.80
2019-02-28T10:45:25.665Z,80.43
2019-02-28T10:47:54.722Z,85.07
2019-02-28T10:50:25.946Z,80.50
2019-02-28T10:52:55.123Z,87.73
2019-02-28T10:55:24.273Z,80.77
2019-02-28T10:57:53.314Z,82.73
2019-02-28T11:00:25.935Z,88.57
2019-02-28T11:02:57.463Z,80.40
2019-02-28T11:05:29.137Z,84.07
2019-02-28T11:07:58.274Z,80.13
2019-02-28T11:10:35.438Z,85.77
2019-02-28T11:13:03.095Z,81.27
2019-02-28T11:15:33.371Z,88.23
2019-02-28T11:18:02.410Z,87.20
2019-02-28T11:20:33.241Z,86.80
2019-02-28T11:23:02.331Z,83.63
2019-02-28T11:25:34.669Z,89.07
2019-02-28T11:28:02.042Z,77.27
2019-02-28T11:30:31.214Z,78.33
2019-02-28T11:33:03.202Z,79.93
2019-02-28T11:35:31.130Z,79.80
2019-02-28T11:38:00.152Z,81.10
2019-02-28T11:40:29.561Z,72.33
2019-02-28T11:42:59.392Z,74.10
2019-02-28T11:45:29.562Z,75.17
2019-02-28T11:47:59.744Z,75.80
2019-02-28T11:50:28.813Z,70.77
2019-02-28T11:53:03.291Z,73.77
2019-02-28T11:55:28.634Z,65.00
2019-02-28T11:57:57.714Z,63.07
2019-02-28T12:00:28.449Z,65.70
2019-02-28T12:03:00.764Z,64.30
2019-02-28T12:05:28.866Z,63.30
2019-02-28T12:08:01.157Z,64.20
2019-02-28T12:10:30.254Z,59.03
2019-02-28T12:12:59.262Z,64.77
2019-02-28T12:15:28.828Z,60.67
2019-02-28T12:18:03.348Z,63.40
2019-02-28T12:20:28.610Z,61.27
2019-02-28T12:22:57.602Z,58.60
2019-02-28T12:25:26.651Z,56.63
2019-02-28T12:27:59.376Z,52.23
2019-02-28T12:30:27.882Z,54.50
2019-02-28T12:32:56.887Z,50.37
2019-02-28T12:35:25.934Z,59.60
2019-02-28T12:37:57.039Z,57.47
2019-02-28T12:40:27.104Z,61.50
2019-02-28T12:42:56.214Z,61.80
2019-02-28T12:45:30.666Z,65.67
2019-02-28T12:48:00.877Z,71.87
2019-02-28T12:50:30.413Z,72.53
2019-02-28T12:52:59.506Z,76.77
2019-02-28T12:55:28.630Z,72.77
2019-02-28T12:57:58.582Z,72.53
2019-02-28T13:00:35.491Z,77.10
2019-02-28T13:03:04.581Z,82.63
2019-02-28T13:05:33.630Z,77.07
2019-02-28T13:08:05.716Z,77.37
2019-02-28T13:10:33.425Z,77.17
2019-02-28T13:13:06.471Z,86.73
2019-02-28T13:15:33.159Z,74.70
2019-02-28T13:18:07.601Z,77.60
2019-02-28T13:20:34.691Z,74.73
2019-02-28T13:23:03.799Z,72.43
2019-02-28T13:25:32.843Z,69.93
2019-02-28T13:28:01.848Z,73.73
2019-02-28T13:30:30.871Z,66.73
2019-02-28T13:32:59.848Z,67.17
2019-02-28T13:35:30.636Z,65.13
2019-02-28T13:37:59.709Z,56.00
2019-02-28T13:40:28.782Z,59.17
2019-02-28T13:42:57.802Z,53.40
2019-02-28T13:45:28.813Z,48.00
2019-02-28T13:47:57.953Z,49.73
2019-02-28T13:50:27.618Z,46.83
2019-02-28T13:52:56.659Z,38.67
2019-02-28T13:55:37.782Z,41.73
2019-02-28T13:58:06.858Z,38.37
2019-02-28T14:00:35.958Z,43.27
2019-02-28T14:03:09.642Z,35.50
2019-02-28T14:05:40.872Z,37.47
2019-02-28T14:08:27.358Z,41.57
2019-02-28T14:10:56.414Z,35.10
2019-02-28T14:13:25.484Z,30.10
2019-02-28T14:15:54.500Z,26.93
2019-02-28T14:18:24.722Z,22.30
2019-02-28T14:20:53.728Z,24.07
2019-02-28T14:23:22.759Z,22.63
2019-02-28T14:25:51.811Z,27.73
2019-02-28T14:28:20.882Z,20.43
2019-02-28T14:30:49.931Z,21.63
2019-02-28T14:33:19.596Z,21.93
2019-02-28T14:35:49.814Z,19.40
2019-02-28T14:38:18.858Z,17.70
2019-02-28T14:40:49.623Z,17.53
2019-02-28T14:43:19.541Z,13.47
2019-02-28T14:45:49.622Z,14.13
2019-02-28T14:48:18.739Z,19.13
2019-02-28T14:50:50.490Z,19.67
2019-02-28T14:53:18.511Z,15.17
2019-02-28T14:55:47.517Z,16.67
2019-02-28T14:58:16.658Z,19.90
2019-02-28T15:00:45.661Z,19.87
2019-02-28T15:03:14.995Z,18.10
2019-02-28T15:05:44.089Z,20.37
2019-02-28T15:08:15.411Z,23.57
2019-02-28T15:11:02.958Z,18.73
2019-02-28T15:13:33.456Z,24.10
2019-02-28T15:16:02.727Z,24.70
2019-02-28T15:18:51.245Z,20.93
2019-02-28T15:21:20.502Z,22.00
2019-02-28T15:23:49.499Z,21.77
2019-02-28T15:26:18.602Z,21.60
2019-02-28T15:28:48.556Z,20.37
2019-02-28T15:31:18.277Z,21.57
2019-02-28T15:33:47.327Z,18.50
2019-02-28T15:36:16.385Z,26.73
2019-02-28T15:38:45.481Z,19.87
2019-02-28T15:41:14.509Z,21.00
2019-02-28T15:43:43.484Z,24.23
2019-02-28T15:46:14.692Z,18.93
2019-02-28T15:48:43.857Z,19.60
2019-02-28T15:51:12.899Z,15.20
2019-02-28T15:53:41.977Z,17.60
2019-02-28T15:56:13.542Z,18.83
2019-02-28T15:58:42.302Z,16.93
2019-02-28T16:01:11.453Z,16.37
2019-02-28T16:03:40.505Z,18.40
2019-02-28T16:06:09.684Z,17.73
2019-02-28T16:08:41.898Z,16.47
2019-02-28T16:11:09.422Z,19.23
2019-02-28T16:13:38.543Z,15.00
2019-02-28T16:16:07.685Z,13.03
2019-02-28T16:18:40.803Z,16.37
2019-02-28T16:21:13.101Z,18.73
2019-02-28T16:23:42.076Z,16.87
2019-02-28T16:26:11.101Z,16.60
2019-02-28T16:28:42.739Z,15.83
2019-02-28T16:31:14.262Z,17.97
2019-02-28T16:33:43.384Z,12.53
2019-02-28T16:36:12.425Z,14.80
2019-02-28T16:38:42.432Z,22.37
2019-02-28T16:41:12.218Z,17.90
2019-02-28T16:43:41.399Z,19.43
2019-02-28T16:46:12.355Z,20.73
2019-02-28T16:48:41.353Z,21.70
2019-02-28T16:51:10.363Z,20.00
2019-02-28T16:53:39.347Z,22.07
2019-02-28T16:56:08.410Z,27.07
2019-02-28T16:58:40.329Z,22.60
2019-02-28T17:01:09.454Z,21.23
2019-02-28T17:03:41.807Z,19.03
2019-02-28T17:06:09.247Z,25.33
2019-02-28T17:08:45.855Z,20.77
2019-02-28T17:11:18.355Z,16.20
2019-02-28T17:13:51.107Z,20.20
2019-02-28T17:16:42.368Z,16.97
2019-02-28T17:19:11.539Z,22.80
2019-02-28T17:21:40.527Z,24.03
2019-02-28T17:24:12.132Z,23.87
2019-02-28T17:26:58.127Z,23.63
2019-02-28T17:29:36.599Z,19.97
2019-02-28T17:32:05.887Z,25.77
2019-02-28T17:34:35.010Z,22.87
2019-02-28T17:37:04.122Z,26.70
2019-02-28T17:39:34.617Z,20.70
2019-02-28T17:42:08.553Z,25.30
2019-02-28T17:45:03.321Z,21.40
2019-02-28T17:48:05.155Z,19.87
2019-02-28T17:51:14.959Z,25.67
2019-02-28T17:54:05.121Z,24.87
2019-02-28T17:56:44.632Z,26.80
2019-02-28T18:00:12.936Z,21.77
2019-02-28T18:03:18.124Z,27.97
2019-02-28T18:06:24.333Z,25.97
2019-02-28T18:09:02.508Z,21.70
2019-02-28T18:12:15.638Z,19.93
2019-02-28T18:14:59.810Z,23.50
2019-02-28T18:18:05.366Z,25.70
2019-02-28T18:21:17.202Z,23.87
2019-02-28T18:24:16.697Z,25.37
2019-02-28T18:27:18.160Z,25.53
2019-02-28T18:30:21.036Z,23.23
2019-02-28T18:32:50.169Z,22.87
2019-02-28T18:35:19.202Z,27.90
2019-02-28T18:37:48.193Z,21.17
2019-02-28T18:40:17.183Z,22.13
2019-02-28T18:42:46.227Z,14.57
2019-02-28T18:45:19.086Z,16.73
2019-02-28T18:47:46.818Z,26.50
2019-02-28T18:50:22.087Z,20.57
2019-02-28T18:52:51.523Z,16.37
2019-02-28T18:55:20.738Z,16.83
2019-02-28T18:57:49.787Z,20.00
2019-02-28T19:00:19.579Z,16.37
2019-02-28T19:02:48.661Z,18.07
2019-02-28T19:05:17.795Z,15.77
2019-02-28T19:07:46.894Z,13.77
2019-02-28T19:10:15.905Z,16.17
2019-02-28T19:12:44.976Z,21.87
2019-02-28T19:15:14.710Z,17.80
2019-02-28T19:17:43.755Z,21.87
2019-02-28T19:20:12.821Z,18.37
2019-02-28T19:22:41.860Z,18.93
2019-02-28T19:25:10.980Z,14.10
2019-02-28T19:27:40.052Z,14.30
2019-02-28T19:30:10.961Z,15.20
2019-02-28T19:32:40.006Z,17.93
2019-02-28T19:35:09.081Z,20.97
2019-02-28T19:37:41.189Z,19.00
2019-02-28T19:40:11.619Z,17.73
2019-02-28T19:42:40.844Z,29.40
2019-02-28T19:45:11.658Z,18.53
2019-02-28T19:47:40.726Z,24.23
2019-02-28T19:50:10.631Z,18.90
2019-02-28T19:52:39.645Z,14.60
2019-02-28T19:55:10.386Z,22.20
2019-02-28T19:57:39.481Z,21.23
2019-02-28T20:00:10.842Z,19.90
2019-02-28T20:02:40.017Z,28.17
2019-02-28T20:05:09.219Z,28.73
2019-02-28T20:07:38.307Z,28.27
2019-02-28T20:10:09.084Z,23.90
2019-02-28T20:12:38.245Z,20.90
2019-02-28T20:15:07.436Z,18.43
2019-02-28T20:17:36.518Z,23.57
2019-02-28T20:20:07.829Z,23.13
2019-02-28T20:22:37.067Z,23.77
2019-02-28T20:25:06.470Z,23.03
2019-02-28T20:27:35.643Z,22.53
2019-02-28T20:30:04.959Z,25.27
2019-02-28T20:32:34.045Z,25.20
2019-02-28T20:35:03.219Z,20.07
2019-02-28T20:37:32.206Z,21.80
2019-02-28T20:40:01.289Z,24.13
2019-02-28T20:42:30.399Z,23.60
2019-02-28T20:44:59.328Z,19.93
2019-02-28T20:47:28.377Z,18.73
2019-02-28T20:49:57.436Z,23.80
2019-02-28T20:52:26.453Z,23.87
2019-02-28T20:54:55.459Z,26.17
2019-02-28T20:57:24.449Z,28.10
2019-02-28T20:59:53.508Z,23.03
2019-02-28T21:02:22.563Z,23.03
2019-02-28T21:04:51.550Z,18.93
2019-02-28T21:07:20.597Z,23.67
2019-02-28T21:09:49.607Z,25.37
2019-02-28T21:12:18.642Z,27.00
2019-02-28T21:14:47.668Z,27.97
2019-02-28T21:17:16.754Z,21.40
2019-02-28T21:19:45.816Z,27.73
2019-02-28T21:22:14.891Z,25.87
2019-02-28T21:24:43.918Z,31.90
2019-02-28T21:27:13.129Z,27.77
2019-02-28T21:29:45.005Z,29.77
2019-02-28T21:32:14.067Z,26.70
2019-02-28T21:34:43.211Z,31.03
2019-02-28T21:37:12.369Z,28.93
2019-02-28T21:39:41.425Z,29.63
2019-02-28T21:42:10.581Z,27.13
2019-02-28T21:44:39.655Z,27.23
2019-02-28T21:47:08.706Z,33.20
2019-02-28T21:49:37.678Z,33.80
2019-02-28T21:52:06.743Z,30.60
2019-02-28T21:54:35.799Z,26.43
2019-02-28T21:57:04.794Z,27.60
2019-02-28T21:59:33.826Z,23.73
2019-02-28T22:02:02.911Z,21.60
2019-02-28T22:04:31.897Z,25.53
2019-02-28T22:07:00.967Z,30.57
2019-02-28T22:09:30.044Z,22.43
2019-02-28T22:11:59.097Z,27.07
2019-02-28T22:14:28.164Z,20.67
2019-02-28T22:16:57.234Z,25.10
2019-02-28T22:19:26.322Z,24.33
2019-02-28T22:21:55.437Z,25.33
2019-02-28T22:24:24.470Z,16.17
2019-02-28T22:26:53.509Z,22.33
2019-02-28T22:29:22.587Z,23.47
2019-02-28T22:31:58.330Z,29.20
2019-02-28T22:34:41.353Z,30.70
2019-02-28T22:37:10.411Z,25.80
2019-02-28T22:39:39.487Z,24.90
2019-02-28T22:42:21.213Z,24.07
2019-02-28T22:44:40.481Z,23.00
2019-02-28T22:47:09.557Z,26.57
2019-02-28T22:49:38.567Z,23.20
2019-02-28T22:52:07.577Z,22.87
2019-02-28T22:54:36.626Z,23.17
2019-02-28T22:57:05.632Z,26.50
2019-02-28T22:59:34.694Z,29.57
2019-02-28T23:02:03.711Z,21.40
2019-02-28T23:04:32.698Z,28.33
2019-02-28T23:07:01.727Z,26.13
2019-02-28T23:09:30.741Z,21.30
2019-02-28T23:11:59.777Z,30.13
2019-02-28T23:14:28.775Z,24.10
2019-02-28T23:16:57.800Z,25.80
2019-02-28T23:19:26.819Z,21.73
2019-02-28T23:21:55.842Z,28.03
2019-02-28T23:24:24.795Z,24.73
2019-02-28T23:27:15.436Z,21.37
2019-02-28T23:29:48.725Z,26.57
2019-02-28T23:32:50.784Z,27.77
2019-02-28T23:35:23.589Z,29.97
2019-02-28T23:37:52.608Z,29.73
2019-02-28T23:40:21.611Z,26.73
2019-02-28T23:42:50.662Z,30.87
2019-02-28T23:45:19.810Z,37.20
2019-02-28T23:47:48.880Z,34.73
2019-02-28T23:50:17.959Z,33.33
2019-02-28T23:52:47.958Z,30.70
2019-02-28T23:55:16.971Z,46.77
2019-02-28T23:57:46.085Z,32.97
